Chrysanthemum — C6XO4 — position and weather

sailwx.info

Track history (hours):
 
Tides and Currents Weather Stations Pressure Air Temp Water Temp Dewpoint Dewpoint Depression Visibility Wind Speed Wind Dir Waves Ship Positions

Chrysanthemum

Last reported at 2014-Sep-02 13:33 UTC. Time now 2014-Sep-03 05:00 UTC.
Position N 01°15' E 104°04'.

Length 244 m; draft 12.5 m.

Type: Tanker. MMSI: 311015300.

Date/timePositionNaut miles runAvg speedWind from/ knotsBaromVisibWave heightAir tempDewpointWater temp
2014-Sep-02 13:33N 01°15' E 104°04'9 9.2
2014-Sep-02 12:33N 01°16' E 103°55'0 0.1
2014-Sep-02 11:34N 01°16' E 103°55'0 0.0
2014-Sep-02 10:33N 01°16' E 103°55'0 0.0
2014-Sep-02 09:34N 01°16' E 103°55'0 0.1
2014-Sep-02 08:27N 01°16' E 103°55'0 0.2
2014-Sep-02 07:31N 01°16' E 103°54'0 0.0
2014-Sep-02 06:30N 01°16' E 103°54'0 0.0
2014-Sep-02 05:33N 01°16' E 103°54'0 0.1
2014-Sep-02 04:33N 01°16' E 103°54'0 0.0
2014-Sep-02 03:30N 01°16' E 103°54'0 0.0
2014-Sep-02 02:31N 01°16' E 103°54'0 0.0
2014-Sep-02 01:33N 01°16' E 103°54'0 0.0
2014-Sep-02 00:34N 01°16' E 103°54'4 4.3
2014-Sep-01 23:33N 01°16' E 103°59'2 1.5
2014-Sep-01 22:32N 01°15' E 103°60'9 8.6
2014-Sep-01 21:29N 01°11' E 103°52'  
Track history (hours):
 
Tides and Currents Weather Stations Pressure Air Temp Water Temp Dewpoint Dewpoint Depression Visibility Wind Speed Wind Dir Waves Ship Positions

Chrysanthemum

Last reported at 2014-Sep-02 13:33 UTC. Time now 2014-Sep-03 05:00 UTC.
Position N 01°15' E 104°04'.

Length 244 m; draft 12.5 m.

Type: Tanker. MMSI: 311015300.

Date/timePositionNaut miles runAvg speedWind from/ knotsBaromVisibWave heightAir tempDewpointWater temp
2014-Sep-02 13:33N 01°15' E 104°04'9 9.2
2014-Sep-02 12:33N 01°16' E 103°55'0 0.1
2014-Sep-02 11:34N 01°16' E 103°55'0 0.0
2014-Sep-02 10:33N 01°16' E 103°55'0 0.0
2014-Sep-02 09:34N 01°16' E 103°55'0 0.1
2014-Sep-02 08:27N 01°16' E 103°55'0 0.2
2014-Sep-02 07:31N 01°16' E 103°54'0 0.0
2014-Sep-02 06:30N 01°16' E 103°54'0 0.0
2014-Sep-02 05:33N 01°16' E 103°54'0 0.1
2014-Sep-02 04:33N 01°16' E 103°54'0 0.0
2014-Sep-02 03:30N 01°16' E 103°54'0 0.0
2014-Sep-02 02:31N 01°16' E 103°54'0 0.0
2014-Sep-02 01:33N 01°16' E 103°54'0 0.0
2014-Sep-02 00:34N 01°16' E 103°54'4 4.3
2014-Sep-01 23:33N 01°16' E 103°59'2 1.5
2014-Sep-01 22:32N 01°15' E 103°60'9 8.6
2014-Sep-01 21:29N 01°11' E 103°52'  

Dump ship's entire track history